sensor_id;sensor_type;location;lat;lon;timestamp;temperature;humidity
42979;DHT22;28616;44.746;19.678;2023-03-30T00:02:21;7.80;63.20
42979;DHT22;28616;44.746;19.678;2023-03-30T00:04:50;7.80;63.00
42979;DHT22;28616;44.746;19.678;2023-03-30T00:07:17;7.70;62.90
42979;DHT22;28616;44.746;19.678;2023-03-30T00:09:44;7.70;63.20
42979;DHT22;28616;44.746;19.678;2023-03-30T00:12:12;7.60;64.00
42979;DHT22;28616;44.746;19.678;2023-03-30T00:14:39;7.60;63.80
42979;DHT22;28616;44.746;19.678;2023-03-30T00:17:08;7.60;64.00
42979;DHT22;28616;44.746;19.678;2023-03-30T00:19:34;7.60;64.20
42979;DHT22;28616;44.746;19.678;2023-03-30T00:22:05;7.60;64.80
42979;DHT22;28616;44.746;19.678;2023-03-30T00:24:32;7.60;64.70
42979;DHT22;28616;44.746;19.678;2023-03-30T00:26:58;7.70;65.10
42979;DHT22;28616;44.746;19.678;2023-03-30T00:29:23;7.70;64.20
42979;DHT22;28616;44.746;19.678;2023-03-30T00:31:49;7.70;64.30
42979;DHT22;28616;44.746;19.678;2023-03-30T00:34:16;7.60;64.70
42979;DHT22;28616;44.746;19.678;2023-03-30T00:36:41;7.60;65.00
42979;DHT22;28616;44.746;19.678;2023-03-30T00:39:07;7.70;65.10
42979;DHT22;28616;44.746;19.678;2023-03-30T00:41:34;7.70;65.20
42979;DHT22;28616;44.746;19.678;2023-03-30T00:47:11;7.60;65.50
42979;DHT22;28616;44.746;19.678;2023-03-30T00:49:37;7.60;66.50
42979;DHT22;28616;44.746;19.678;2023-03-30T00:52:03;7.60;66.20
42979;DHT22;28616;44.746;19.678;2023-03-30T00:54:29;7.60;66.10
42979;DHT22;28616;44.746;19.678;2023-03-30T00:56:55;7.50;66.40
42979;DHT22;28616;44.746;19.678;2023-03-30T00:59:21;7.50;66.60
42979;DHT22;28616;44.746;19.678;2023-03-30T01:01:47;7.50;66.30
42979;DHT22;28616;44.746;19.678;2023-03-30T01:04:15;7.50;66.10
42979;DHT22;28616;44.746;19.678;2023-03-30T01:06:48;7.50;66.00
42979;DHT22;28616;44.746;19.678;2023-03-30T01:09:14;7.50;66.40
42979;DHT22;28616;44.746;19.678;2023-03-30T01:11:44;7.60;66.40
42979;DHT22;28616;44.746;19.678;2023-03-30T01:14:11;7.50;66.40
42979;DHT22;28616;44.746;19.678;2023-03-30T01:41:11;7.60;67.00
42979;DHT22;28616;44.746;19.678;2023-03-30T01:43:54;7.60;66.80
42979;DHT22;28616;44.746;19.678;2023-03-30T01:46:30;7.70;67.30
42979;DHT22;28616;44.746;19.678;2023-03-30T01:49:09;7.60;67.00
42979;DHT22;28616;44.746;19.678;2023-03-30T01:52:55;7.60;66.70
42979;DHT22;28616;44.746;19.678;2023-03-30T02:00:21;7.50;67.40
42979;DHT22;28616;44.746;19.678;2023-03-30T02:02:52;7.60;67.60
42979;DHT22;28616;44.746;19.678;2023-03-30T02:05:20;7.50;67.00
42979;DHT22;28616;44.746;19.678;2023-03-30T02:07:52;7.50;67.60
42979;DHT22;28616;44.746;19.678;2023-03-30T02:10:18;7.40;68.30
42979;DHT22;28616;44.746;19.678;2023-03-30T02:12:46;7.40;67.90
42979;DHT22;28616;44.746;19.678;2023-03-30T02:15:13;7.40;68.30
42979;DHT22;28616;44.746;19.678;2023-03-30T02:17:41;7.50;68.80
42979;DHT22;28616;44.746;19.678;2023-03-30T02:20:08;7.50;68.70
42979;DHT22;28616;44.746;19.678;2023-03-30T02:22:35;7.50;68.30
42979;DHT22;28616;44.746;19.678;2023-03-30T02:25:01;7.50;68.90
42979;DHT22;28616;44.746;19.678;2023-03-30T02:27:27;7.40;68.90
42979;DHT22;28616;44.746;19.678;2023-03-30T02:29:53;7.40;68.50
42979;DHT22;28616;44.746;19.678;2023-03-30T02:32:26;7.30;68.50
42979;DHT22;28616;44.746;19.678;2023-03-30T02:43:06;7.40;68.60
42979;DHT22;28616;44.746;19.678;2023-03-30T02:48:36;7.40;69.70
42979;DHT22;28616;44.746;19.678;2023-03-30T02:53:46;7.30;69.60
42979;DHT22;28616;44.746;19.678;2023-03-30T02:59:54;7.00;70.70
42979;DHT22;28616;44.746;19.678;2023-03-30T03:02:42;7.00;71.80
42979;DHT22;28616;44.746;19.678;2023-03-30T03:05:11;6.90;72.70
42979;DHT22;28616;44.746;19.678;2023-03-30T03:07:39;6.90;73.20
42979;DHT22;28616;44.746;19.678;2023-03-30T03:10:06;6.80;73.40
42979;DHT22;28616;44.746;19.678;2023-03-30T03:12:33;6.70;73.40
42979;DHT22;28616;44.746;19.678;2023-03-30T03:14:59;6.70;73.80
42979;DHT22;28616;44.746;19.678;2023-03-30T03:17:28;6.70;74.00
42979;DHT22;28616;44.746;19.678;2023-03-30T03:20:00;6.60;73.80
42979;DHT22;28616;44.746;19.678;2023-03-30T03:22:26;6.60;74.20
42979;DHT22;28616;44.746;19.678;2023-03-30T03:24:52;6.50;73.80
42979;DHT22;28616;44.746;19.678;2023-03-30T03:27:18;6.50;74.30
42979;DHT22;28616;44.746;19.678;2023-03-30T03:29:44;6.50;74.60
42979;DHT22;28616;44.746;19.678;2023-03-30T03:32:10;6.40;74.60
42979;DHT22;28616;44.746;19.678;2023-03-30T03:34:35;6.40;75.10
42979;DHT22;28616;44.746;19.678;2023-03-30T03:37:01;6.40;74.90
42979;DHT22;28616;44.746;19.678;2023-03-30T03:39:27;6.30;75.80
42979;DHT22;28616;44.746;19.678;2023-03-30T03:41:53;6.30;76.50
42979;DHT22;28616;44.746;19.678;2023-03-30T03:44:18;6.30;76.60
42979;DHT22;28616;44.746;19.678;2023-03-30T03:46:44;6.20;76.80
42979;DHT22;28616;44.746;19.678;2023-03-30T03:49:10;6.20;77.40
42979;DHT22;28616;44.746;19.678;2023-03-30T03:51:36;6.20;77.70
42979;DHT22;28616;44.746;19.678;2023-03-30T03:54:02;6.10;77.70
42979;DHT22;28616;44.746;19.678;2023-03-30T03:56:28;6.10;78.50
42979;DHT22;28616;44.746;19.678;2023-03-30T03:58:53;6.10;79.10
42979;DHT22;28616;44.746;19.678;2023-03-30T04:01:19;6.10;78.70
42979;DHT22;28616;44.746;19.678;2023-03-30T04:03:45;6.10;78.90
42979;DHT22;28616;44.746;19.678;2023-03-30T04:06:10;6.00;79.50
42979;DHT22;28616;44.746;19.678;2023-03-30T04:08:36;6.00;79.90
42979;DHT22;28616;44.746;19.678;2023-03-30T04:11:07;5.90;80.40
42979;DHT22;28616;44.746;19.678;2023-03-30T04:13:34;5.90;80.90
42979;DHT22;28616;44.746;19.678;2023-03-30T04:16:00;5.90;80.90
42979;DHT22;28616;44.746;19.678;2023-03-30T04:18:26;5.80;81.20
42979;DHT22;28616;44.746;19.678;2023-03-30T04:20:58;5.80;81.80
42979;DHT22;28616;44.746;19.678;2023-03-30T04:23:27;5.80;82.20
42979;DHT22;28616;44.746;19.678;2023-03-30T04:26:06;5.80;82.90
42979;DHT22;28616;44.746;19.678;2023-03-30T04:28:34;5.80;83.70
42979;DHT22;28616;44.746;19.678;2023-03-30T04:31:02;5.70;83.60
42979;DHT22;28616;44.746;19.678;2023-03-30T04:33:28;5.80;84.60
42979;DHT22;28616;44.746;19.678;2023-03-30T04:35:53;5.80;85.30
42979;DHT22;28616;44.746;19.678;2023-03-30T04:38:19;5.80;86.60
42979;DHT22;28616;44.746;19.678;2023-03-30T04:40:49;5.80;86.90
42979;DHT22;28616;44.746;19.678;2023-03-30T04:43:16;5.80;87.60
42979;DHT22;28616;44.746;19.678;2023-03-30T04:45:54;5.80;88.30
42979;DHT22;28616;44.746;19.678;2023-03-30T04:48:22;5.80;89.10
42979;DHT22;28616;44.746;19.678;2023-03-30T04:50:49;5.80;89.40
42979;DHT22;28616;44.746;19.678;2023-03-30T04:53:17;5.80;90.40
42979;DHT22;28616;44.746;19.678;2023-03-30T04:55:47;5.80;91.20
42979;DHT22;28616;44.746;19.678;2023-03-30T04:58:13;5.90;91.70
42979;DHT22;28616;44.746;19.678;2023-03-30T05:00:39;5.90;92.40
42979;DHT22;28616;44.746;19.678;2023-03-30T05:03:05;6.00;93.60
42979;DHT22;28616;44.746;19.678;2023-03-30T05:05:31;6.00;93.50
42979;DHT22;28616;44.746;19.678;2023-03-30T05:07:58;6.20;94.00
42979;DHT22;28616;44.746;19.678;2023-03-30T05:10:24;6.20;94.40
42979;DHT22;28616;44.746;19.678;2023-03-30T05:12:53;6.30;94.50
42979;DHT22;28616;44.746;19.678;2023-03-30T05:15:19;6.40;94.50
42979;DHT22;28616;44.746;19.678;2023-03-30T05:17:45;6.50;94.10
42979;DHT22;28616;44.746;19.678;2023-03-30T05:20:10;6.50;94.20
42979;DHT22;28616;44.746;19.678;2023-03-30T05:22:36;6.60;94.80
42979;DHT22;28616;44.746;19.678;2023-03-30T05:25:03;6.70;95.20
42979;DHT22;28616;44.746;19.678;2023-03-30T05:27:28;6.80;94.20
42979;DHT22;28616;44.746;19.678;2023-03-30T05:29:54;7.00;94.40
42979;DHT22;28616;44.746;19.678;2023-03-30T05:32:20;7.00;94.00
42979;DHT22;28616;44.746;19.678;2023-03-30T05:34:47;7.00;93.90
42979;DHT22;28616;44.746;19.678;2023-03-30T05:37:13;7.00;93.60
42979;DHT22;28616;44.746;19.678;2023-03-30T05:39:39;7.00;93.60
42979;DHT22;28616;44.746;19.678;2023-03-30T05:42:05;7.00;93.50
42979;DHT22;28616;44.746;19.678;2023-03-30T05:44:32;7.00;93.30
42979;DHT22;28616;44.746;19.678;2023-03-30T05:46:58;7.10;93.50
42979;DHT22;28616;44.746;19.678;2023-03-30T05:49:23;7.10;93.00
42979;DHT22;28616;44.746;19.678;2023-03-30T05:51:49;7.20;92.80
42979;DHT22;28616;44.746;19.678;2023-03-30T05:54:15;7.30;93.40
42979;DHT22;28616;44.746;19.678;2023-03-30T05:56:41;7.40;92.90
42979;DHT22;28616;44.746;19.678;2023-03-30T05:59:07;7.50;91.50
42979;DHT22;28616;44.746;19.678;2023-03-30T06:01:35;7.50;91.00
42979;DHT22;28616;44.746;19.678;2023-03-30T06:04:00;7.60;90.70
42979;DHT22;28616;44.746;19.678;2023-03-30T06:06:27;7.70;91.00
42979;DHT22;28616;44.746;19.678;2023-03-30T06:08:52;7.90;90.90
42979;DHT22;28616;44.746;19.678;2023-03-30T06:11:18;8.00;90.70
42979;DHT22;28616;44.746;19.678;2023-03-30T06:13:44;8.10;91.00
42979;DHT22;28616;44.746;19.678;2023-03-30T06:16:10;8.30;90.70
42979;DHT22;28616;44.746;19.678;2023-03-30T06:18:36;8.40;90.20
42979;DHT22;28616;44.746;19.678;2023-03-30T06:21:03;8.60;90.00
42979;DHT22;28616;44.746;19.678;2023-03-30T06:23:32;8.80;88.50
42979;DHT22;28616;44.746;19.678;2023-03-30T06:25:58;8.90;89.00
42979;DHT22;28616;44.746;19.678;2023-03-30T06:28:24;9.00;86.40
42979;DHT22;28616;44.746;19.678;2023-03-30T06:30:50;9.10;86.00
42979;DHT22;28616;44.746;19.678;2023-03-30T06:33:16;9.30;84.50
42979;DHT22;28616;44.746;19.678;2023-03-30T06:35:46;9.50;83.00
42979;DHT22;28616;44.746;19.678;2023-03-30T06:38:13;9.70;83.00
42979;DHT22;28616;44.746;19.678;2023-03-30T06:40:39;9.90;81.30
42979;DHT22;28616;44.746;19.678;2023-03-30T06:43:06;9.90;80.80
42979;DHT22;28616;44.746;19.678;2023-03-30T06:45:32;10.20;83.20
42979;DHT22;28616;44.746;19.678;2023-03-30T06:47:58;10.40;81.90
42979;DHT22;28616;44.746;19.678;2023-03-30T06:50:24;10.60;80.00
42979;DHT22;28616;44.746;19.678;2023-03-30T06:52:50;10.80;79.60
42979;DHT22;28616;44.746;19.678;2023-03-30T06:55:16;11.10;78.60
42979;DHT22;28616;44.746;19.678;2023-03-30T06:57:42;11.20;77.10
42979;DHT22;28616;44.746;19.678;2023-03-30T07:00:09;11.30;76.50
42979;DHT22;28616;44.746;19.678;2023-03-30T07:02:42;11.40;74.90
42979;DHT22;28616;44.746;19.678;2023-03-30T07:05:08;11.70;74.30
42979;DHT22;28616;44.746;19.678;2023-03-30T07:07:35;11.60;72.60
42979;DHT22;28616;44.746;19.678;2023-03-30T07:10:02;11.60;70.70
42979;DHT22;28616;44.746;19.678;2023-03-30T07:12:35;11.60;70.20
42979;DHT22;28616;44.746;19.678;2023-03-30T07:15:01;11.50;69.50
42979;DHT22;28616;44.746;19.678;2023-03-30T07:17:26;11.70;69.30
42979;DHT22;28616;44.746;19.678;2023-03-30T07:19:52;12.10;72.00
42979;DHT22;28616;44.746;19.678;2023-03-30T07:22:18;12.30;69.10
42979;DHT22;28616;44.746;19.678;2023-03-30T07:24:44;12.50;67.70
42979;DHT22;28616;44.746;19.678;2023-03-30T07:27:10;12.70;65.70
42979;DHT22;28616;44.746;19.678;2023-03-30T07:29:36;12.90;65.90
42979;DHT22;28616;44.746;19.678;2023-03-30T07:32:02;13.20;64.10
42979;DHT22;28616;44.746;19.678;2023-03-30T07:34:28;13.50;63.70
42979;DHT22;28616;44.746;19.678;2023-03-30T07:36:54;13.40;61.10
42979;DHT22;28616;44.746;19.678;2023-03-30T07:39:20;13.60;60.70
42979;DHT22;28616;44.746;19.678;2023-03-30T07:41:46;13.60;60.60
42979;DHT22;28616;44.746;19.678;2023-03-30T07:44:11;13.80;59.70
42979;DHT22;28616;44.746;19.678;2023-03-30T07:46:37;14.10;60.10
42979;DHT22;28616;44.746;19.678;2023-03-30T07:49:03;14.40;56.10
42979;DHT22;28616;44.746;19.678;2023-03-30T07:51:29;14.50;57.90
42979;DHT22;28616;44.746;19.678;2023-03-30T07:53:55;14.40;55.80
42979;DHT22;28616;44.746;19.678;2023-03-30T07:56:21;14.30;56.50
42979;DHT22;28616;44.746;19.678;2023-03-30T07:58:46;14.10;55.90
42979;DHT22;28616;44.746;19.678;2023-03-30T08:01:12;14.20;55.60
42979;DHT22;28616;44.746;19.678;2023-03-30T08:03:38;14.40;55.70
42979;DHT22;28616;44.746;19.678;2023-03-30T08:06:04;14.50;54.30
42979;DHT22;28616;44.746;19.678;2023-03-30T08:08:31;14.90;53.70
42979;DHT22;28616;44.746;19.678;2023-03-30T08:10:58;15.40;56.00
42979;DHT22;28616;44.746;19.678;2023-03-30T08:13:24;15.60;53.80
42979;DHT22;28616;44.746;19.678;2023-03-30T08:15:50;15.80;55.40
42979;DHT22;28616;44.746;19.678;2023-03-30T08:18:17;15.90;52.80
42979;DHT22;28616;44.746;19.678;2023-03-30T08:20:43;16.10;52.10
42979;DHT22;28616;44.746;19.678;2023-03-30T08:23:10;16.10;50.90
42979;DHT22;28616;44.746;19.678;2023-03-30T08:25:37;16.10;49.00
42979;DHT22;28616;44.746;19.678;2023-03-30T08:28:03;16.20;49.60
42979;DHT22;28616;44.746;19.678;2023-03-30T08:30:30;16.10;49.40
42979;DHT22;28616;44.746;19.678;2023-03-30T08:32:56;16.40;49.80
42979;DHT22;28616;44.746;19.678;2023-03-30T08:35:22;16.60;49.40
42979;DHT22;28616;44.746;19.678;2023-03-30T08:37:49;16.60;42.90
42979;DHT22;28616;44.746;19.678;2023-03-30T08:40:15;16.80;46.20
42979;DHT22;28616;44.746;19.678;2023-03-30T08:45:37;17.60;42.70
42979;DHT22;28616;44.746;19.678;2023-03-30T08:48:06;17.80;42.80
42979;DHT22;28616;44.746;19.678;2023-03-30T08:50:36;17.70;44.10
42979;DHT22;28616;44.746;19.678;2023-03-30T08:53:06;17.80;42.90
42979;DHT22;28616;44.746;19.678;2023-03-30T08:55:53;18.10;41.40
42979;DHT22;28616;44.746;19.678;2023-03-30T09:00:58;18.70;41.30
42979;DHT22;28616;44.746;19.678;2023-03-30T09:03:32;19.10;43.00
42979;DHT22;28616;44.746;19.678;2023-03-30T09:06:55;19.10;36.80
42979;DHT22;28616;44.746;19.678;2023-03-30T09:09:17;19.20;38.00
42979;DHT22;28616;44.746;19.678;2023-03-30T09:11:45;19.20;36.50
42979;DHT22;28616;44.746;19.678;2023-03-30T09:14:45;19.00;36.90
42979;DHT22;28616;44.746;19.678;2023-03-30T09:17:29;18.70;39.30
42979;DHT22;28616;44.746;19.678;2023-03-30T09:20:00;18.30;39.10
42979;DHT22;28616;44.746;19.678;2023-03-30T09:22:37;18.00;39.00
42979;DHT22;28616;44.746;19.678;2023-03-30T09:25:14;17.50;40.90
42979;DHT22;28616;44.746;19.678;2023-03-30T09:27:53;17.40;41.50
42979;DHT22;28616;44.746;19.678;2023-03-30T09:30:27;17.20;41.50
42979;DHT22;28616;44.746;19.678;2023-03-30T09:33:24;17.20;42.00
42979;DHT22;28616;44.746;19.678;2023-03-30T09:36:40;17.10;42.20
42979;DHT22;28616;44.746;19.678;2023-03-30T09:38:45;17.10;42.20
42979;DHT22;28616;44.746;19.678;2023-03-30T09:41:19;17.10;43.10
42979;DHT22;28616;44.746;19.678;2023-03-30T09:43:46;17.10;42.30
42979;DHT22;28616;44.746;19.678;2023-03-30T09:46:14;16.80;41.50
42979;DHT22;28616;44.746;19.678;2023-03-30T09:48:44;16.90;42.40
42979;DHT22;28616;44.746;19.678;2023-03-30T09:51:27;17.10;42.20
42979;DHT22;28616;44.746;19.678;2023-03-30T09:54:01;17.20;42.00
42979;DHT22;28616;44.746;19.678;2023-03-30T09:59:24;17.30;41.00
42979;DHT22;28616;44.746;19.678;2023-03-30T10:01:52;17.30;41.00
42979;DHT22;28616;44.746;19.678;2023-03-30T10:04:32;17.40;41.00
42979;DHT22;28616;44.746;19.678;2023-03-30T10:06:58;17.70;41.10
42979;DHT22;28616;44.746;19.678;2023-03-30T10:09:24;17.70;40.50
42979;DHT22;28616;44.746;19.678;2023-03-30T10:11:51;17.80;44.10
42979;DHT22;28616;44.746;19.678;2023-03-30T10:14:34;17.90;39.70
42979;DHT22;28616;44.746;19.678;2023-03-30T10:17:02;18.30;39.60
42979;DHT22;28616;44.746;19.678;2023-03-30T10:19:29;18.40;39.60
42979;DHT22;28616;44.746;19.678;2023-03-30T10:21:58;19.10;40.30
42979;DHT22;28616;44.746;19.678;2023-03-30T10:24:30;19.60;39.00
42979;DHT22;28616;44.746;19.678;2023-03-30T10:27:11;19.70;36.70
42979;DHT22;28616;44.746;19.678;2023-03-30T10:29:44;19.70;37.00
42979;DHT22;28616;44.746;19.678;2023-03-30T10:32:15;20.00;37.20
42979;DHT22;28616;44.746;19.678;2023-03-30T10:34:44;20.10;33.80
42979;DHT22;28616;44.746;19.678;2023-03-30T10:37:16;19.90;36.20
42979;DHT22;28616;44.746;19.678;2023-03-30T10:39:46;20.10;36.10
42979;DHT22;28616;44.746;19.678;2023-03-30T10:42:17;20.20;35.60
42979;DHT22;28616;44.746;19.678;2023-03-30T10:44:50;20.40;36.60
42979;DHT22;28616;44.746;19.678;2023-03-30T10:53:11;20.60;34.80
42979;DHT22;28616;44.746;19.678;2023-03-30T11:04:56;22.40;32.30
42979;DHT22;28616;44.746;19.678;2023-03-30T11:07:28;22.50;31.00
42979;DHT22;28616;44.746;19.678;2023-03-30T11:09:58;22.20;31.90
42979;DHT22;28616;44.746;19.678;2023-03-30T11:12:32;22.60;31.30
42979;DHT22;28616;44.746;19.678;2023-03-30T11:15:01;22.80;31.50
42979;DHT22;28616;44.746;19.678;2023-03-30T11:17:28;22.40;29.90
42979;DHT22;28616;44.746;19.678;2023-03-30T11:19:56;21.70;32.00
42979;DHT22;28616;44.746;19.678;2023-03-30T11:22:40;21.50;32.70
42979;DHT22;28616;44.746;19.678;2023-03-30T11:25:21;21.60;33.50
42979;DHT22;28616;44.746;19.678;2023-03-30T11:28:05;21.80;31.60
42979;DHT22;28616;44.746;19.678;2023-03-30T11:30:34;22.20;32.10
42979;DHT22;28616;44.746;19.678;2023-03-30T11:33:27;22.10;32.50
42979;DHT22;28616;44.746;19.678;2023-03-30T11:36:00;21.70;31.00
42979;DHT22;28616;44.746;19.678;2023-03-30T11:38:41;22.40;32.00
42979;DHT22;28616;44.746;19.678;2023-03-30T11:41:23;22.40;31.20
42979;DHT22;28616;44.746;19.678;2023-03-30T11:43:53;22.30;30.60
42979;DHT22;28616;44.746;19.678;2023-03-30T11:46:36;21.90;32.50
42979;DHT22;28616;44.746;19.678;2023-03-30T11:54:44;23.20;77.60
42979;DHT22;28616;44.746;19.678;2023-03-30T12:07:56;24.10;28.70
42979;DHT22;28616;44.746;19.678;2023-03-30T12:10:41;24.30;29.60
42979;DHT22;28616;44.746;19.678;2023-03-30T12:13:14;23.60;28.70
42979;DHT22;28616;44.746;19.678;2023-03-30T12:18:43;23.80;28.70
42979;DHT22;28616;44.746;19.678;2023-03-30T12:23:50;24.40;29.50
42979;DHT22;28616;44.746;19.678;2023-03-30T12:26:31;24.40;28.80
42979;DHT22;28616;44.746;19.678;2023-03-30T12:29:11;24.60;28.40
42979;DHT22;28616;44.746;19.678;2023-03-30T12:31:51;24.70;28.30
42979;DHT22;28616;44.746;19.678;2023-03-30T12:34:39;24.70;28.90
42979;DHT22;28616;44.746;19.678;2023-03-30T12:37:53;24.60;27.50
42979;DHT22;28616;44.746;19.678;2023-03-30T12:40:13;24.60;29.20
42979;DHT22;28616;44.746;19.678;2023-03-30T12:43:27;24.30;27.10
42979;DHT22;28616;44.746;19.678;2023-03-30T12:53:53;24.50;29.40
42979;DHT22;28616;44.746;19.678;2023-03-30T13:07:20;24.70;27.80
42979;DHT22;28616;44.746;19.678;2023-03-30T13:09:59;24.40;28.40
42979;DHT22;28616;44.746;19.678;2023-03-30T13:22:57;24.60;27.70
42979;DHT22;28616;44.746;19.678;2023-03-30T13:25:27;24.30;27.40
42979;DHT22;28616;44.746;19.678;2023-03-30T13:43:15;24.30;50.30
42979;DHT22;28616;44.746;19.678;2023-03-30T13:46:03;24.10;28.30
42979;DHT22;28616;44.746;19.678;2023-03-30T13:48:48;24.10;29.40
42979;DHT22;28616;44.746;19.678;2023-03-30T13:51:22;23.90;27.60
42979;DHT22;28616;44.746;19.678;2023-03-30T13:53:53;23.60;28.30
42979;DHT22;28616;44.746;19.678;2023-03-30T13:56:23;23.60;28.80
42979;DHT22;28616;44.746;19.678;2023-03-30T14:04:32;24.20;28.80
42979;DHT22;28616;44.746;19.678;2023-03-30T14:07:04;23.90;27.30
42979;DHT22;28616;44.746;19.678;2023-03-30T14:11:58;24.20;37.10
42979;DHT22;28616;44.746;19.678;2023-03-30T14:16:55;23.80;27.50
42979;DHT22;28616;44.746;19.678;2023-03-30T14:19:36;23.70;27.70
42979;DHT22;28616;44.746;19.678;2023-03-30T14:22:08;23.10;28.30
42979;DHT22;28616;44.746;19.678;2023-03-30T14:24:35;23.00;30.10
42979;DHT22;28616;44.746;19.678;2023-03-30T14:27:06;23.10;29.90
42979;DHT22;28616;44.746;19.678;2023-03-30T14:29:32;23.20;28.80
42979;DHT22;28616;44.746;19.678;2023-03-30T14:32:02;23.30;29.20
42979;DHT22;28616;44.746;19.678;2023-03-30T14:34:30;23.30;28.60
42979;DHT22;28616;44.746;19.678;2023-03-30T14:37:02;23.20;29.80
42979;DHT22;28616;44.746;19.678;2023-03-30T14:39:30;23.10;29.90
42979;DHT22;28616;44.746;19.678;2023-03-30T14:42:21;22.90;30.00
42979;DHT22;28616;44.746;19.678;2023-03-30T14:44:50;22.90;29.90
42979;DHT22;28616;44.746;19.678;2023-03-30T14:47:19;22.40;29.80
42979;DHT22;28616;44.746;19.678;2023-03-30T14:49:47;22.50;29.90
42979;DHT22;28616;44.746;19.678;2023-03-30T14:52:17;22.40;29.90
42979;DHT22;28616;44.746;19.678;2023-03-30T14:54:45;22.40;29.90
42979;DHT22;28616;44.746;19.678;2023-03-30T14:57:13;22.30;30.40
42979;DHT22;28616;44.746;19.678;2023-03-30T14:59:47;22.20;31.20
42979;DHT22;28616;44.746;19.678;2023-03-30T15:02:35;22.20;31.20
42979;DHT22;28616;44.746;19.678;2023-03-30T15:05:02;22.10;30.70
42979;DHT22;28616;44.746;19.678;2023-03-30T15:07:30;22.00;31.50
42979;DHT22;28616;44.746;19.678;2023-03-30T15:09:58;21.40;32.00
42979;DHT22;28616;44.746;19.678;2023-03-30T15:14:55;21.20;33.00
42979;DHT22;28616;44.746;19.678;2023-03-30T15:17:24;21.10;33.40
42979;DHT22;28616;44.746;19.678;2023-03-30T15:19:52;21.10;33.10
42979;DHT22;28616;44.746;19.678;2023-03-30T15:22:42;20.80;32.80
42979;DHT22;28616;44.746;19.678;2023-03-30T15:25:13;20.80;34.00
42979;DHT22;28616;44.746;19.678;2023-03-30T15:27:42;20.70;33.90
42979;DHT22;28616;44.746;19.678;2023-03-30T15:30:41;20.70;34.00
42979;DHT22;28616;44.746;19.678;2023-03-30T15:33:40;20.60;34.70
42979;DHT22;28616;44.746;19.678;2023-03-30T15:36:18;20.60;35.20
42979;DHT22;28616;44.746;19.678;2023-03-30T15:38:48;20.60;35.50
42979;DHT22;28616;44.746;19.678;2023-03-30T15:41:15;20.60;35.60
42979;DHT22;28616;44.746;19.678;2023-03-30T15:44:02;20.50;35.50
42979;DHT22;28616;44.746;19.678;2023-03-30T15:46:34;20.40;35.20
42979;DHT22;28616;44.746;19.678;2023-03-30T15:49:01;20.30;36.50
42979;DHT22;28616;44.746;19.678;2023-03-30T15:51:34;20.20;34.90
42979;DHT22;28616;44.746;19.678;2023-03-30T15:54:54;20.00;35.80
42979;DHT22;28616;44.746;19.678;2023-03-30T15:59:48;19.90;36.90
42979;DHT22;28616;44.746;19.678;2023-03-30T16:02:17;19.80;37.30
42979;DHT22;28616;44.746;19.678;2023-03-30T16:04:44;19.70;36.70
42979;DHT22;28616;44.746;19.678;2023-03-30T16:07:30;19.70;37.60
42979;DHT22;28616;44.746;19.678;2023-03-30T16:09:56;19.60;37.60
42979;DHT22;28616;44.746;19.678;2023-03-30T16:12:25;19.50;37.90
42979;DHT22;28616;44.746;19.678;2023-03-30T16:14:51;19.40;37.80
42979;DHT22;28616;44.746;19.678;2023-03-30T16:17:18;19.20;37.40
42979;DHT22;28616;44.746;19.678;2023-03-30T16:19:44;19.10;38.20
42979;DHT22;28616;44.746;19.678;2023-03-30T16:22:11;19.10;39.10
42979;DHT22;28616;44.746;19.678;2023-03-30T16:24:38;19.00;38.70
42979;DHT22;28616;44.746;19.678;2023-03-30T16:27:04;18.90;39.70
42979;DHT22;28616;44.746;19.678;2023-03-30T16:29:32;18.80;39.30
42979;DHT22;28616;44.746;19.678;2023-03-30T16:31:59;18.70;39.10
42979;DHT22;28616;44.746;19.678;2023-03-30T16:34:25;18.70;39.90
42979;DHT22;28616;44.746;19.678;2023-03-30T16:36:51;18.60;40.40
42979;DHT22;28616;44.746;19.678;2023-03-30T16:39:22;18.60;40.20
42979;DHT22;28616;44.746;19.678;2023-03-30T16:41:49;18.50;41.30
42979;DHT22;28616;44.746;19.678;2023-03-30T16:44:16;18.40;41.00
42979;DHT22;28616;44.746;19.678;2023-03-30T16:46:44;18.30;40.70
42979;DHT22;28616;44.746;19.678;2023-03-30T16:49:15;18.30;40.70
42979;DHT22;28616;44.746;19.678;2023-03-30T16:51:41;18.20;41.40
42979;DHT22;28616;44.746;19.678;2023-03-30T16:54:08;18.10;41.70
42979;DHT22;28616;44.746;19.678;2023-03-30T16:56:33;18.00;42.40
42979;DHT22;28616;44.746;19.678;2023-03-30T16:58:59;17.90;43.90
42979;DHT22;28616;44.746;19.678;2023-03-30T17:01:27;17.80;44.00
42979;DHT22;28616;44.746;19.678;2023-03-30T17:03:53;17.70;44.30
42979;DHT22;28616;44.746;19.678;2023-03-30T17:06:18;17.60;43.90
42979;DHT22;28616;44.746;19.678;2023-03-30T17:08:47;17.50;43.70
42979;DHT22;28616;44.746;19.678;2023-03-30T17:11:13;17.40;43.70
42979;DHT22;28616;44.746;19.678;2023-03-30T17:13:40;17.30;43.60
42979;DHT22;28616;44.746;19.678;2023-03-30T17:16:07;17.30;43.80
42979;DHT22;28616;44.746;19.678;2023-03-30T17:18:36;17.20;43.90
42979;DHT22;28616;44.746;19.678;2023-03-30T17:21:01;17.10;43.90
42979;DHT22;28616;44.746;19.678;2023-03-30T17:23:30;17.10;44.20
42979;DHT22;28616;44.746;19.678;2023-03-30T17:26:00;17.00;45.20
42979;DHT22;28616;44.746;19.678;2023-03-30T17:28:28;17.00;45.20
42979;DHT22;28616;44.746;19.678;2023-03-30T17:30:56;16.90;45.40
42979;DHT22;28616;44.746;19.678;2023-03-30T17:33:23;16.90;45.90
42979;DHT22;28616;44.746;19.678;2023-03-30T17:35:52;16.80;46.60
42979;DHT22;28616;44.746;19.678;2023-03-30T17:38:18;16.70;46.90
42979;DHT22;28616;44.746;19.678;2023-03-30T17:40:44;16.60;47.50
42979;DHT22;28616;44.746;19.678;2023-03-30T17:43:10;16.60;47.80
42979;DHT22;28616;44.746;19.678;2023-03-30T17:45:37;16.60;48.30
42979;DHT22;28616;44.746;19.678;2023-03-30T17:48:05;16.50;48.60
42979;DHT22;28616;44.746;19.678;2023-03-30T17:50:37;16.50;48.80
42979;DHT22;28616;44.746;19.678;2023-03-30T17:53:04;16.40;48.80
42979;DHT22;28616;44.746;19.678;2023-03-30T17:55:32;16.40;49.00
42979;DHT22;28616;44.746;19.678;2023-03-30T17:57:58;16.40;49.00
42979;DHT22;28616;44.746;19.678;2023-03-30T18:00:30;16.40;49.00
42979;DHT22;28616;44.746;19.678;2023-03-30T18:02:57;16.40;49.30
42979;DHT22;28616;44.746;19.678;2023-03-30T18:05:25;16.30;49.40
42979;DHT22;28616;44.746;19.678;2023-03-30T18:07:52;16.30;50.00
42979;DHT22;28616;44.746;19.678;2023-03-30T18:10:21;16.30;49.80
42979;DHT22;28616;44.746;19.678;2023-03-30T18:12:48;16.20;49.70
42979;DHT22;28616;44.746;19.678;2023-03-30T18:15:14;16.20;50.30
42979;DHT22;28616;44.746;19.678;2023-03-30T18:17:41;16.20;50.10